Time;durP1;ratioP1;P1;durP2;ratioP2;P2;SDS_P1;SDS_P2;PMS_P1;PMS_P2;Temp;Humidity;BMP_temperature;BMP_pressure;BME280_temperature;BME280_humidity;BME280_pressure;Samples;Min_cycle;Max_cycle;Signal;HPM_P1;HPM_P2
2021/06/21 00:00:21;;;;;;;;;;;19.80;99.90;;;;;;5049375;28;20024;-72
2021/06/21 00:02:48;;;;;;;;;;;19.90;99.90;;;;;;5051522;28;20067;-72
2021/06/21 00:05:15;;;;;;;;;;;19.70;99.90;;;;;;5050519;28;20026;-72
2021/06/21 00:07:42;;;;;;;;;;;19.60;99.90;;;;;;5048498;28;20422;-72
2021/06/21 00:10:10;;;;;;;;;;;19.80;99.90;;;;;;5051438;28;19952;-72
2021/06/21 00:12:39;;;;;;;;;;;19.90;99.90;;;;;;5048415;28;20360;-72
2021/06/21 00:15:06;;;;;;;;;;;19.80;99.90;;;;;;5050730;28;19971;-72
2021/06/21 00:17:32;;;;;;;;;;;19.80;99.90;;;;;;5050473;28;20637;-72
2021/06/21 00:19:59;;;;;;;;;;;19.90;99.90;;;;;;5049098;28;20008;-72
2021/06/21 00:22:26;;;;;;;;;;;19.90;99.90;;;;;;5046557;28;19925;-71
2021/06/21 00:24:52;;;;;;;;;;;19.90;99.90;;;;;;5049670;28;20011;-72
2021/06/21 00:27:19;;;;;;;;;;;20.00;99.90;;;;;;5048421;28;20003;-72
2021/06/21 00:29:47;;;;;;;;;;;19.90;99.90;;;;;;5050671;28;19929;-72
2021/06/21 00:32:14;;;;;;;;;;;19.80;99.90;;;;;;5048135;28;20360;-72
2021/06/21 00:34:41;;;;;;;;;;;19.80;99.90;;;;;;5051129;28;19927;-71
2021/06/21 00:37:08;;;;;;;;;;;19.60;99.90;;;;;;5045205;28;19980;-72
2021/06/21 00:39:35;;;;;;;;;;;19.70;99.90;;;;;;5048227;28;20028;-71
2021/06/21 00:42:01;;;;;;;;;;;19.70;99.90;;;;;;5049706;28;19960;-72
2021/06/21 00:44:28;;;;;;;;;;;19.60;99.90;;;;;;5052037;28;20019;-72
2021/06/21 00:46:55;;;;;;;;;;;19.70;99.90;;;;;;5044886;28;20342;-69
2021/06/21 00:49:21;;;;;;;;;;;19.60;99.90;;;;;;5048741;28;19937;-72
2021/06/21 00:51:50;;;;;;;;;;;19.90;99.90;;;;;;5051093;28;19983;-72
2021/06/21 00:54:17;;;;;;;;;;;19.80;99.90;;;;;;5048687;28;19998;-72
2021/06/21 00:56:43;;;;;;;;;;;19.80;99.90;;;;;;5050646;28;20011;-67
2021/06/21 00:59:10;;;;;;;;;;;19.90;99.90;;;;;;5050067;28;20023;-66
2021/06/21 01:01:37;;;;;;;;;;;20.00;99.90;;;;;;5048221;28;20010;-66
2021/06/21 01:04:04;;;;;;;;;;;20.20;99.90;;;;;;5051321;28;19929;-66
2021/06/21 01:06:31;;;;;;;;;;;20.00;99.90;;;;;;5049082;28;19960;-67
2021/06/21 01:08:58;;;;;;;;;;;19.90;99.90;;;;;;5040890;28;19929;-65
2021/06/21 01:11:27;;;;;;;;;;;19.90;99.90;;;;;;5051388;28;20402;-66
2021/06/21 01:14:00;;;;;;;;;;;19.90;99.90;;;;;;5049617;28;19924;-67
2021/06/21 01:16:47;;;;;;;;;;;20.00;99.90;;;;;;5046370;28;20012;-67
2021/06/21 01:19:23;;;;;;;;;;;19.80;99.90;;;;;;5048982;28;19960;-66
2021/06/21 01:22:08;;;;;;;;;;;19.70;99.90;;;;;;5047188;28;19968;-66
2021/06/21 01:24:54;;;;;;;;;;;19.40;99.90;;;;;;5043992;28;20027;-67
2021/06/21 01:27:31;;;;;;;;;;;19.50;99.90;;;;;;5042765;28;19932;-68
2021/06/21 01:30:27;;;;;;;;;;;19.60;99.90;;;;;;5049304;28;20027;-66
2021/06/21 01:32:57;;;;;;;;;;;19.60;99.90;;;;;;5048655;28;19924;-66
2021/06/21 01:35:25;;;;;;;;;;;19.50;99.90;;;;;;5049045;28;19931;-66
2021/06/21 01:37:54;;;;;;;;;;;19.60;99.90;;;;;;5037540;28;19967;-67
2021/06/21 01:40:21;;;;;;;;;;;19.50;99.90;;;;;;5048387;28;20415;-67
2021/06/21 01:42:50;;;;;;;;;;;19.40;99.90;;;;;;5047932;28;19951;-66
2021/06/21 01:45:18;;;;;;;;;;;19.40;99.90;;;;;;5048292;28;19960;-67
2021/06/21 01:47:49;;;;;;;;;;;19.50;99.90;;;;;;5049340;28;20700;-66
2021/06/21 01:50:20;;;;;;;;;;;19.40;99.90;;;;;;5039451;28;20337;-67
2021/06/21 01:52:49;;;;;;;;;;;19.60;99.90;;;;;;5044214;28;19951;-68
2021/06/21 01:55:19;;;;;;;;;;;19.80;99.90;;;;;;5052297;28;20029;-66
2021/06/21 01:57:46;;;;;;;;;;;19.50;99.90;;;;;;5047279;28;20442;-67
2021/06/21 02:00:14;;;;;;;;;;;19.50;99.90;;;;;;5049161;28;19974;-67
2021/06/21 02:02:41;;;;;;;;;;;19.60;99.90;;;;;;5047904;28;19972;-67
2021/06/21 02:05:09;;;;;;;;;;;19.60;99.90;;;;;;5047994;28;19986;-66
2021/06/21 02:07:36;;;;;;;;;;;19.50;99.90;;;;;;5043117;28;20396;-66
2021/06/21 02:10:04;;;;;;;;;;;19.60;99.90;;;;;;5043869;28;20012;-66
2021/06/21 02:12:31;;;;;;;;;;;19.70;99.90;;;;;;5047397;28;19988;-67
2021/06/21 02:14:58;;;;;;;;;;;19.60;99.90;;;;;;5050091;28;19935;-66
2021/06/21 02:17:26;;;;;;;;;;;19.50;99.90;;;;;;5046465;28;19956;-67
2021/06/21 02:19:53;;;;;;;;;;;19.30;99.90;;;;;;5048608;28;19931;-66
2021/06/21 02:22:24;;;;;;;;;;;19.40;99.90;;;;;;5046070;28;19966;-72
2021/06/21 02:24:52;;;;;;;;;;;19.40;99.90;;;;;;5041714;28;20106;-66
2021/06/21 02:27:19;;;;;;;;;;;19.20;99.90;;;;;;5044000;28;20494;-66
2021/06/21 02:29:47;;;;;;;;;;;19.30;99.90;;;;;;5049606;28;19971;-66
2021/06/21 02:32:14;;;;;;;;;;;19.20;99.90;;;;;;5040746;28;20059;-66
2021/06/21 02:34:41;;;;;;;;;;;19.10;99.90;;;;;;5044431;28;19964;-66
2021/06/21 02:37:08;;;;;;;;;;;19.10;99.90;;;;;;5041676;28;19956;-66
2021/06/21 02:39:35;;;;;;;;;;;19.10;99.90;;;;;;5045393;28;20011;-65
2021/06/21 02:42:02;;;;;;;;;;;19.30;99.90;;;;;;5045177;28;19925;-64
2021/06/21 02:44:29;;;;;;;;;;;19.40;99.90;;;;;;5050009;28;20032;-64
2021/06/21 02:46:56;;;;;;;;;;;19.20;99.90;;;;;;5043901;28;19960;-65
2021/06/21 02:49:23;;;;;;;;;;;19.20;99.90;;;;;;5046559;28;20313;-65
2021/06/21 02:51:55;;;;;;;;;;;19.10;99.90;;;;;;5037698;28;19989;-65
2021/06/21 02:54:24;;;;;;;;;;;19.00;99.90;;;;;;5045017;28;20023;-66
2021/06/21 02:56:58;;;;;;;;;;;19.20;99.90;;;;;;5042002;28;20292;-65
2021/06/21 02:59:25;;;;;;;;;;;19.30;99.90;;;;;;5048034;28;19928;-66
2021/06/21 03:01:53;;;;;;;;;;;19.30;99.90;;;;;;5041052;28;20012;-65
2021/06/21 03:04:21;;;;;;;;;;;19.20;99.90;;;;;;5036780;28;19929;-66
2021/06/21 03:06:49;;;;;;;;;;;19.10;99.90;;;;;;5045441;28;19925;-66
2021/06/21 03:09:17;;;;;;;;;;;19.10;99.90;;;;;;5043481;28;19990;-66
2021/06/21 03:11:44;;;;;;;;;;;19.20;99.90;;;;;;5041031;28;19948;-65
2021/06/21 03:14:12;;;;;;;;;;;19.10;99.90;;;;;;5044294;28;20372;-65
2021/06/21 03:16:39;;;;;;;;;;;19.10;99.90;;;;;;5045149;28;20342;-65
2021/06/21 03:19:06;;;;;;;;;;;19.30;99.90;;;;;;5042039;28;19931;-65
2021/06/21 03:21:33;;;;;;;;;;;19.20;99.90;;;;;;5061301;28;19971;-65
2021/06/21 03:24:00;;;;;;;;;;;19.10;99.90;;;;;;5046203;28;19963;-65
2021/06/21 03:26:28;;;;;;;;;;;19.20;99.90;;;;;;5044116;28;19960;-68
2021/06/21 03:28:55;;;;;;;;;;;19.20;99.90;;;;;;5042890;28;19931;-66
2021/06/21 03:31:22;;;;;;;;;;;19.00;99.90;;;;;;5049400;28;20004;-66
2021/06/21 03:33:50;;;;;;;;;;;19.00;99.90;;;;;;5051985;28;19974;-67
2021/06/21 03:36:17;;;;;;;;;;;19.00;99.90;;;;;;5048766;28;19932;-65
2021/06/21 03:38:43;;;;;;;;;;;19.00;99.90;;;;;;5049123;28;20001;-65
2021/06/21 03:41:10;;;;;;;;;;;19.00;99.90;;;;;;5053625;28;20371;-67
2021/06/21 03:43:37;;;;;;;;;;;19.10;99.90;;;;;;5049166;28;20023;-66
2021/06/21 03:46:05;;;;;;;;;;;19.00;99.90;;;;;;5059739;28;20345;-66
2021/06/21 03:48:32;;;;;;;;;;;19.00;99.90;;;;;;5051762;28;19964;-65
2021/06/21 03:50:58;;;;;;;;;;;18.90;99.90;;;;;;5045998;28;20347;-66
2021/06/21 03:53:26;;;;;;;;;;;19.10;99.90;;;;;;5047274;28;19971;-65
2021/06/21 03:55:53;;;;;;;;;;;19.10;99.90;;;;;;5050388;28;20008;-66
2021/06/21 03:58:20;;;;;;;;;;;19.10;99.90;;;;;;5050256;28;20075;-66
2021/06/21 04:00:48;;;;;;;;;;;19.00;99.90;;;;;;5047028;28;19932;-66
2021/06/21 04:03:15;;;;;;;;;;;19.30;99.90;;;;;;5049432;28;19979;-65
2021/06/21 04:05:42;;;;;;;;;;;19.10;99.90;;;;;;5048907;28;20008;-66
2021/06/21 04:08:10;;;;;;;;;;;19.20;99.90;;;;;;5046327;28;20431;-66
2021/06/21 04:10:37;;;;;;;;;;;19.40;99.90;;;;;;5046592;28;19972;-66
2021/06/21 04:13:04;;;;;;;;;;;19.30;99.90;;;;;;5043569;28;19933;-65
2021/06/21 04:15:31;;;;;;;;;;;19.10;99.90;;;;;;5049536;28;20347;-66
2021/06/21 04:17:59;;;;;;;;;;;19.10;99.90;;;;;;5050115;28;19983;-65
2021/06/21 04:20:26;;;;;;;;;;;19.10;99.90;;;;;;5048089;28;19996;-66
2021/06/21 04:22:53;;;;;;;;;;;19.20;99.90;;;;;;5052607;28;19960;-66
2021/06/21 04:25:20;;;;;;;;;;;19.30;99.90;;;;;;5050258;28;20012;-65
2021/06/21 04:27:47;;;;;;;;;;;19.30;99.90;;;;;;5047384;28;20031;-66
2021/06/21 04:30:15;;;;;;;;;;;19.30;99.90;;;;;;5050733;28;19964;-66
2021/06/21 04:32:42;;;;;;;;;;;19.30;99.90;;;;;;5050278;28;19925;-67
2021/06/21 04:35:12;;;;;;;;;;;19.30;99.90;;;;;;5051047;28;20479;-66
2021/06/21 04:37:38;;;;;;;;;;;19.30;99.90;;;;;;5050650;28;19964;-65
2021/06/21 04:40:06;;;;;;;;;;;19.30;99.90;;;;;;5049232;28;19998;-65
2021/06/21 04:42:33;;;;;;;;;;;19.40;99.90;;;;;;5050594;28;19947;-65
2021/06/21 04:45:00;;;;;;;;;;;19.50;99.90;;;;;;5045481;28;19974;-65
2021/06/21 04:47:26;;;;;;;;;;;19.50;99.90;;;;;;5049591;28;19987;-66
2021/06/21 04:49:54;;;;;;;;;;;19.70;99.90;;;;;;5050469;28;19925;-65
2021/06/21 04:52:23;;;;;;;;;;;19.80;99.90;;;;;;5050838;28;20045;-67
2021/06/21 04:54:50;;;;;;;;;;;20.00;99.90;;;;;;5045204;28;19995;-66
2021/06/21 04:57:17;;;;;;;;;;;20.20;99.90;;;;;;5047208;28;20023;-67
2021/06/21 04:59:44;;;;;;;;;;;20.50;99.90;;;;;;5043944;28;19925;-64
2021/06/21 05:02:11;;;;;;;;;;;20.50;99.90;;;;;;5048493;28;20458;-65
2021/06/21 05:04:37;;;;;;;;;;;20.60;99.90;;;;;;5051002;28;19975;-66
2021/06/21 05:07:04;;;;;;;;;;;21.00;99.90;;;;;;5049228;28;19932;-66
2021/06/21 05:09:31;;;;;;;;;;;21.50;99.90;;;;;;5044017;28;19968;-71
2021/06/21 05:11:58;;;;;;;;;;;21.60;99.90;;;;;;5047104;28;19972;-72
2021/06/21 05:14:28;;;;;;;;;;;21.60;99.90;;;;;;5042273;28;20373;-72
2021/06/21 05:16:55;;;;;;;;;;;22.00;99.90;;;;;;5047609;28;20055;-72
2021/06/21 05:19:22;;;;;;;;;;;22.50;99.90;;;;;;5068637;28;19974;-72
2021/06/21 05:21:49;;;;;;;;;;;22.60;99.90;;;;;;5042317;28;19971;-73
2021/06/21 05:24:16;;;;;;;;;;;23.20;99.90;;;;;;5050111;28;19924;-72
2021/06/21 05:26:42;;;;;;;;;;;23.60;99.90;;;;;;5055292;28;19979;-72
2021/06/21 05:29:09;;;;;;;;;;;24.20;99.90;;;;;;5044884;28;19960;-72
2021/06/21 05:31:36;;;;;;;;;;;24.90;99.90;;;;;;5048326;28;20019;-72
2021/06/21 05:34:03;;;;;;;;;;;25.20;99.90;;;;;;5051464;28;19924;-72
2021/06/21 05:36:30;;;;;;;;;;;26.00;99.90;;;;;;5042736;28;19956;-71
2021/06/21 05:38:56;;;;;;;;;;;25.90;99.90;;;;;;5047466;28;19971;-73
2021/06/21 05:41:23;;;;;;;;;;;26.30;99.90;;;;;;5050569;28;19924;-72
2021/06/21 05:43:50;;;;;;;;;;;26.60;99.90;;;;;;5045624;28;19975;-72
2021/06/21 05:46:17;;;;;;;;;;;26.90;99.20;;;;;;5047903;28;19963;-67
2021/06/21 05:48:43;;;;;;;;;;;24.70;99.90;;;;;;5046269;28;19924;-66
2021/06/21 05:51:10;;;;;;;;;;;23.30;99.90;;;;;;5041778;28;19925;-66
2021/06/21 05:53:36;;;;;;;;;;;23.00;99.90;;;;;;5047314;28;20008;-67
2021/06/21 05:56:03;;;;;;;;;;;22.70;99.90;;;;;;5048540;28;19972;-66
2021/06/21 05:58:30;;;;;;;;;;;21.80;99.90;;;;;;5044679;28;19975;-67
2021/06/21 06:00:57;;;;;;;;;;;22.30;99.90;;;;;;5035662;28;19933;-66
2021/06/21 06:03:24;;;;;;;;;;;21.90;99.90;;;;;;5034158;28;20042;-69
2021/06/21 06:05:51;;;;;;;;;;;21.80;99.90;;;;;;5048518;28;19936;-67
2021/06/21 06:08:19;;;;;;;;;;;21.50;99.90;;;;;;5035672;28;20369;-72
2021/06/21 06:10:46;;;;;;;;;;;21.40;99.90;;;;;;5033165;28;20344;-66
2021/06/21 06:13:13;;;;;;;;;;;21.60;99.90;;;;;;5034792;28;19929;-71
2021/06/21 06:15:39;;;;;;;;;;;21.40;99.90;;;;;;5031478;28;20799;-70
2021/06/21 06:18:06;;;;;;;;;;;21.60;99.90;;;;;;5032784;28;19933;-70
2021/06/21 06:20:33;;;;;;;;;;;21.60;99.90;;;;;;5034115;28;20363;-70
2021/06/21 06:23:00;;;;;;;;;;;21.80;99.90;;;;;;5033541;28;20019;-70
2021/06/21 06:25:27;;;;;;;;;;;22.00;99.90;;;;;;5035697;28;20130;-70
2021/06/21 06:27:54;;;;;;;;;;;21.90;99.90;;;;;;5032665;28;20034;-71
2021/06/21 06:30:21;;;;;;;;;;;22.00;99.90;;;;;;5031530;28;20390;-71
2021/06/21 06:32:48;;;;;;;;;;;23.40;99.90;;;;;;5031565;28;20147;-71
2021/06/21 06:35:15;;;;;;;;;;;22.60;99.90;;;;;;5033925;28;19932;-71
2021/06/21 06:37:41;;;;;;;;;;;22.30;99.90;;;;;;5035742;28;19933;-72
2021/06/21 06:40:09;;;;;;;;;;;22.30;99.90;;;;;;5032930;28;19995;-70
2021/06/21 06:42:36;;;;;;;;;;;23.00;99.90;;;;;;5034330;28;19932;-70
2021/06/21 06:45:04;;;;;;;;;;;22.60;99.90;;;;;;5034614;28;20011;-69
2021/06/21 06:47:32;;;;;;;;;;;22.80;99.90;;;;;;5035352;28;19932;-70
2021/06/21 06:49:59;;;;;;;;;;;23.60;99.90;;;;;;5033892;28;20399;-71
2021/06/21 06:52:25;;;;;;;;;;;26.10;99.90;;;;;;5033349;28;20017;-71
2021/06/21 06:57:35;;;;;;;;;;;23.30;99.90;;;;;;5035551;28;20388;-71
2021/06/21 07:00:03;;;;;;;;;;;22.60;99.90;;;;;;5030679;28;19933;-68
2021/06/21 07:02:30;;;;;;;;;;;22.10;99.90;;;;;;5032772;28;20309;-68
2021/06/21 07:04:56;;;;;;;;;;;22.20;99.90;;;;;;5032205;28;20023;-69
2021/06/21 07:07:23;;;;;;;;;;;22.30;99.90;;;;;;5033439;28;19937;-69
2021/06/21 07:09:50;;;;;;;;;;;22.20;99.90;;;;;;5033507;28;20424;-69
2021/06/21 07:12:16;;;;;;;;;;;22.10;99.90;;;;;;5046269;28;19932;-69
2021/06/21 07:14:44;;;;;;;;;;;22.30;99.90;;;;;;5063966;28;20443;-69
2021/06/21 07:17:11;;;;;;;;;;;22.60;99.90;;;;;;5065062;28;20467;-68
2021/06/21 07:19:38;;;;;;;;;;;22.80;99.90;;;;;;5031614;28;20023;-67
2021/06/21 07:22:05;;;;;;;;;;;24.10;99.90;;;;;;5034210;28;19940;-71
2021/06/21 07:24:31;;;;;;;;;;;23.60;99.90;;;;;;5031927;28;20038;-72
2021/06/21 07:26:58;;;;;;;;;;;23.30;99.90;;;;;;5033927;28;20003;-72
2021/06/21 07:29:25;;;;;;;;;;;23.50;99.90;;;;;;5032842;28;20021;-72
2021/06/21 07:31:52;;;;;;;;;;;23.10;99.90;;;;;;5033459;28;20032;-73
2021/06/21 07:34:19;;;;;;;;;;;23.30;99.90;;;;;;5035590;28;19935;-73
2021/06/21 07:36:46;;;;;;;;;;;23.80;99.90;;;;;;5031605;28;19937;-73
2021/06/21 07:39:13;;;;;;;;;;;23.70;99.90;;;;;;5034922;28;19958;-73
2021/06/21 07:41:40;;;;;;;;;;;23.90;99.90;;;;;;5033384;28;19933;-73
2021/06/21 07:44:10;;;;;;;;;;;23.70;99.90;;;;;;5032209;28;20038;-73
2021/06/21 07:46:37;;;;;;;;;;;23.80;99.90;;;;;;5032087;28;19960;-73
2021/06/21 07:49:03;;;;;;;;;;;23.80;99.90;;;;;;5031728;28;19940;-73
2021/06/21 07:51:30;;;;;;;;;;;23.80;99.90;;;;;;5031265;28;19933;-73
2021/06/21 07:53:57;;;;;;;;;;;23.50;99.90;;;;;;5033144;28;19940;-73
2021/06/21 07:56:24;;;;;;;;;;;23.40;99.90;;;;;;5032171;28;19933;-72
2021/06/21 07:58:51;;;;;;;;;;;23.30;99.90;;;;;;5030323;28;20031;-73
2021/06/21 08:01:17;;;;;;;;;;;23.10;99.90;;;;;;5032175;28;19994;-73
2021/06/21 08:03:44;;;;;;;;;;;23.20;99.90;;;;;;5032443;28;20438;-74
2021/06/21 08:06:14;;;;;;;;;;;23.30;99.90;;;;;;5029601;28;20037;-85
2021/06/21 08:08:41;;;;;;;;;;;23.40;99.90;;;;;;5031437;28;19933;-69
2021/06/21 08:11:09;;;;;;;;;;;23.30;99.90;;;;;;5031056;28;20406;-69
2021/06/21 08:13:36;;;;;;;;;;;23.60;99.90;;;;;;5031735;28;19933;-69
2021/06/21 08:16:03;;;;;;;;;;;23.80;99.90;;;;;;5032847;28;20014;-69
2021/06/21 08:18:30;;;;;;;;;;;23.90;99.90;;;;;;5033702;28;20295;-71
2021/06/21 08:20:58;;;;;;;;;;;23.80;99.90;;;;;;5035744;28;20350;-69
2021/06/21 08:23:26;;;;;;;;;;;24.10;99.90;;;;;;5034257;28;19933;-69
2021/06/21 08:25:52;;;;;;;;;;;24.00;99.90;;;;;;5043814;28;19979;-71
2021/06/21 08:28:19;;;;;;;;;;;23.90;99.90;;;;;;5037857;28;20079;-68
2021/06/21 08:30:47;;;;;;;;;;;24.00;99.90;;;;;;5049447;28;20019;-68
2021/06/21 08:33:14;;;;;;;;;;;24.10;99.90;;;;;;5036387;28;20043;-70
2021/06/21 08:35:41;;;;;;;;;;;23.90;99.90;;;;;;5035660;28;20048;-71
2021/06/21 08:38:08;;;;;;;;;;;23.90;99.90;;;;;;5036069;28;19929;-71
2021/06/21 08:40:35;;;;;;;;;;;23.90;99.90;;;;;;5037807;28;20280;-71
2021/06/21 08:43:02;;;;;;;;;;;24.00;99.90;;;;;;5036091;28;20429;-73
2021/06/21 08:45:30;;;;;;;;;;;23.50;99.90;;;;;;5037747;28;20395;-73
2021/06/21 08:47:57;;;;;;;;;;;23.20;99.90;;;;;;5034465;28;20447;-71
2021/06/21 08:50:24;;;;;;;;;;;23.30;99.90;;;;;;5036547;28;19972;-72
2021/06/21 08:52:52;;;;;;;;;;;23.10;99.90;;;;;;5034979;28;19937;-67
2021/06/21 08:55:19;;;;;;;;;;;23.10;99.90;;;;;;5036213;28;20015;-69
2021/06/21 08:57:46;;;;;;;;;;;23.20;99.90;;;;;;5035877;28;20043;-66
2021/06/21 09:00:15;;;;;;;;;;;23.40;99.90;;;;;;5033642;28;20071;-68
2021/06/21 09:02:41;;;;;;;;;;;23.40;99.90;;;;;;5041207;28;20019;-66
2021/06/21 09:05:09;;;;;;;;;;;23.50;99.90;;;;;;5047086;28;19929;-68
2021/06/21 09:07:36;;;;;;;;;;;23.50;99.90;;;;;;5046076;28;19932;-67
2021/06/21 09:10:11;;;;;;;;;;;23.70;99.90;;;;;;5048331;28;20047;-68
2021/06/21 09:12:37;;;;;;;;;;;23.50;99.90;;;;;;5048103;28;20039;-67
2021/06/21 09:15:08;;;;;;;;;;;23.40;99.90;;;;;;5045004;28;19933;-66
2021/06/21 09:17:36;;;;;;;;;;;23.50;99.90;;;;;;5050304;28;20709;-67
2021/06/21 09:20:05;;;;;;;;;;;23.80;99.90;;;;;;5046159;28;20033;-68
2021/06/21 09:22:51;;;;;;;;;;;23.80;99.90;;;;;;5048215;28;19971;-67
2021/06/21 09:25:22;;;;;;;;;;;23.80;99.90;;;;;;5047694;28;19939;-68
2021/06/21 09:27:56;;;;;;;;;;;23.70;99.90;;;;;;5076208;28;19988;-66
2021/06/21 09:30:24;;;;;;;;;;;23.40;99.90;;;;;;5048173;28;19933;-67
2021/06/21 09:32:52;;;;;;;;;;;23.50;99.90;;;;;;5043323;28;20025;-66
2021/06/21 09:35:28;;;;;;;;;;;23.50;99.90;;;;;;5045868;28;20380;-68
2021/06/21 09:37:59;;;;;;;;;;;23.40;99.90;;;;;;5047875;28;20015;-67
2021/06/21 09:40:30;;;;;;;;;;;23.30;99.90;;;;;;5048129;28;20026;-68
2021/06/21 09:42:58;;;;;;;;;;;23.30;99.90;;;;;;5047442;28;19964;-67
2021/06/21 09:45:26;;;;;;;;;;;23.30;99.90;;;;;;5046641;28;20051;-72
2021/06/21 09:47:52;;;;;;;;;;;23.70;99.90;;;;;;5047659;28;19964;-67
2021/06/21 09:50:20;;;;;;;;;;;23.90;99.90;;;;;;5047688;28;19967;-66
2021/06/21 09:52:50;;;;;;;;;;;23.90;99.90;;;;;;5048789;28;20438;-68
2021/06/21 09:55:18;;;;;;;;;;;23.70;99.90;;;;;;5046576;28;19936;-68
2021/06/21 09:58:00;;;;;;;;;;;23.80;99.90;;;;;;5049297;28;19937;-71
2021/06/21 10:00:27;;;;;;;;;;;23.50;99.90;;;;;;5047500;28;19960;-72
2021/06/21 10:03:05;;;;;;;;;;;23.30;99.90;;;;;;5043181;28;19933;-70
2021/06/21 10:05:39;;;;;;;;;;;23.40;99.90;;;;;;5046041;28;20021;-71
2021/06/21 10:08:06;;;;;;;;;;;23.50;99.90;;;;;;5045444;28;20039;-70
2021/06/21 10:10:34;;;;;;;;;;;23.80;99.90;;;;;;5045495;28;19933;-72
2021/06/21 10:13:01;;;;;;;;;;;24.10;99.90;;;;;;5046742;28;19980;-72
2021/06/21 10:15:28;;;;;;;;;;;24.40;99.70;;;;;;5045075;28;19978;-75
2021/06/21 10:17:55;;;;;;;;;;;24.60;98.80;;;;;;5045237;28;20282;-74
2021/06/21 10:20:22;;;;;;;;;;;24.40;99.00;;;;;;5042554;28;20434;-75
2021/06/21 10:22:49;;;;;;;;;;;24.00;99.00;;;;;;5042634;28;20048;-75
2021/06/21 10:25:16;;;;;;;;;;;24.00;99.50;;;;;;5042684;28;20005;-75
2021/06/21 10:27:44;;;;;;;;;;;24.00;99.90;;;;;;5047368;28;20035;-75
2021/06/21 10:30:13;;;;;;;;;;;24.10;99.40;;;;;;5043223;28;19933;-74
2021/06/21 10:32:40;;;;;;;;;;;24.40;98.40;;;;;;5046011;28;20355;-77
2021/06/21 10:35:09;;;;;;;;;;;24.50;97.20;;;;;;5044317;28;20076;-73
2021/06/21 10:37:36;;;;;;;;;;;24.60;95.30;;;;;;5045130;28;19929;-74
2021/06/21 10:40:08;;;;;;;;;;;25.10;95.60;;;;;;5042780;28;20049;-74
2021/06/21 10:42:41;;;;;;;;;;;25.20;94.00;;;;;;5044602;28;19940;-74
2021/06/21 10:45:15;;;;;;;;;;;24.90;93.60;;;;;;5045463;28;19958;-75
2021/06/21 10:47:46;;;;;;;;;;;24.60;94.40;;;;;;5047177;28;20027;-74
2021/06/21 10:50:16;;;;;;;;;;;24.60;96.30;;;;;;5042446;28;19968;-75
2021/06/21 10:52:55;;;;;;;;;;;24.40;96.60;;;;;;5043193;28;19971;-76
2021/06/21 10:55:23;;;;;;;;;;;24.30;96.50;;;;;;5059207;28;20003;-75
2021/06/21 10:57:50;;;;;;;;;;;24.50;96.10;;;;;;5058410;28;19964;-73
2021/06/21 11:00:18;;;;;;;;;;;24.90;94.90;;;;;;5045411;28;20422;-74
2021/06/21 11:02:45;;;;;;;;;;;25.30;93.80;;;;;;5044747;28;20438;-76
2021/06/21 11:05:30;;;;;;;;;;;25.40;90.20;;;;;;5041455;28;20028;-74
2021/06/21 11:08:16;;;;;;;;;;;25.50;86.90;;;;;;5044664;28;19998;-72
2021/06/21 11:10:46;;;;;;;;;;;25.70;87.20;;;;;;5046576;28;20443;-75
2021/06/21 11:13:32;;;;;;;;;;;25.70;87.40;;;;;;5045966;28;19933;-76
2021/06/21 11:16:15;;;;;;;;;;;25.60;87.60;;;;;;5045159;28;19929;-75
2021/06/21 11:18:43;;;;;;;;;;;25.20;90.50;;;;;;5044782;28;19940;-75
2021/06/21 11:21:13;;;;;;;;;;;25.20;91.50;;;;;;5042224;28;19979;-76
2021/06/21 11:23:42;;;;;;;;;;;25.40;90.10;;;;;;5044925;28;19936;-74
2021/06/21 11:26:09;;;;;;;;;;;25.60;87.60;;;;;;5045845;28;20392;-76
2021/06/21 11:28:43;;;;;;;;;;;25.40;87.20;;;;;;5041984;28;19995;-75
2021/06/21 11:31:19;;;;;;;;;;;25.30;88.90;;;;;;5043378;28;19972;-74
2021/06/21 11:33:52;;;;;;;;;;;25.30;90.30;;;;;;5045903;28;20371;-74
2021/06/21 11:36:34;;;;;;;;;;;25.50;90.20;;;;;;5042451;28;20048;-75
2021/06/21 11:39:22;;;;;;;;;;;25.90;87.70;;;;;;5044363;28;20332;-75
2021/06/21 11:41:52;;;;;;;;;;;25.70;86.20;;;;;;5045181;28;19967;-75
2021/06/21 11:44:40;;;;;;;;;;;25.80;85.80;;;;;;5042597;28;19943;-76
2021/06/21 11:47:24;;;;;;;;;;;25.50;85.60;;;;;;5045084;28;19968;-76
2021/06/21 11:49:55;;;;;;;;;;;25.60;87.00;;;;;;5044432;28;19986;-76
2021/06/21 11:52:23;;;;;;;;;;;26.10;84.00;;;;;;5043269;28;20002;-77
2021/06/21 11:54:52;;;;;;;;;;;25.90;82.70;;;;;;5047943;28;19961;-76
2021/06/21 11:57:20;;;;;;;;;;;26.00;82.50;;;;;;5049511;28;19951;-76
2021/06/21 11:59:48;;;;;;;;;;;25.70;84.00;;;;;;5059582;28;19984;-74
2021/06/21 12:02:22;;;;;;;;;;;25.90;83.90;;;;;;5048658;28;19936;-76
2021/06/21 12:04:51;;;;;;;;;;;26.20;79.50;;;;;;5048191;28;19979;-75
2021/06/21 12:07:28;;;;;;;;;;;26.40;76.30;;;;;;5045746;28;20023;-76
2021/06/21 12:09:56;;;;;;;;;;;26.40;74.20;;;;;;5047541;28;19937;-74
2021/06/21 12:12:30;;;;;;;;;;;26.50;73.50;;;;;;5048599;28;20106;-69
2021/06/21 12:14:57;;;;;;;;;;;26.50;75.80;;;;;;5044626;28;20783;-70
2021/06/21 12:17:25;;;;;;;;;;;27.10;71.30;;;;;;5046413;28;20019;-69
2021/06/21 12:20:02;;;;;;;;;;;28.40;65.00;;;;;;5046051;28;20024;-69
2021/06/21 12:22:28;;;;;;;;;;;29.30;58.20;;;;;;5046838;28;19959;-68
2021/06/21 12:24:55;;;;;;;;;;;31.10;53.20;;;;;;5048762;28;20048;-70
2021/06/21 12:27:22;;;;;;;;;;;33.30;47.40;;;;;;5043675;28;20055;-70
2021/06/21 12:29:49;;;;;;;;;;;37.30;41.50;;;;;;5047430;28;20366;-68
2021/06/21 12:32:16;;;;;;;;;;;36.50;37.60;;;;;;5050148;28;19932;-69
2021/06/21 12:34:53;;;;;;;;;;;34.20;39.80;;;;;;5046420;28;19934;-77
2021/06/21 12:37:28;;;;;;;;;;;36.10;39.70;;;;;;5045087;28;19933;-75
2021/06/21 12:39:57;;;;;;;;;;;35.90;38.90;;;;;;5046644;28;19968;-75
2021/06/21 12:42:24;;;;;;;;;;;36.10;39.10;;;;;;5046462;28;20436;-76
2021/06/21 12:44:51;;;;;;;;;;;38.40;37.90;;;;;;5046439;28;20387;-74
2021/06/21 12:47:19;;;;;;;;;;;39.40;36.10;;;;;;5046551;28;20581;-76
2021/06/21 12:49:47;;;;;;;;;;;34.40;40.20;;;;;;5044271;28;19963;-75
2021/06/21 12:52:14;;;;;;;;;;;33.60;42.20;;;;;;5060401;28;19939;-76
2021/06/21 12:54:41;;;;;;;;;;;33.20;43.20;;;;;;5047378;28;19959;-74
2021/06/21 12:57:08;;;;;;;;;;;32.80;44.60;;;;;;5046640;28;19972;-75
2021/06/21 12:59:38;;;;;;;;;;;32.20;45.80;;;;;;5047051;28;20039;-76
2021/06/21 13:02:05;;;;;;;;;;;32.50;46.40;;;;;;5045957;28;20023;-70
2021/06/21 13:04:33;;;;;;;;;;;33.10;45.40;;;;;;5045811;28;19939;-71
2021/06/21 13:07:09;;;;;;;;;;;33.40;43.60;;;;;;5046623;28;19959;-69
2021/06/21 13:09:43;;;;;;;;;;;33.90;43.90;;;;;;5045271;28;20293;-68
2021/06/21 13:12:20;;;;;;;;;;;33.30;44.20;;;;;;5047685;28;19976;-70
2021/06/21 13:14:47;;;;;;;;;;;32.00;42.80;;;;;;5062359;28;20322;-69
2021/06/21 13:17:24;;;;;;;;;;;31.00;45.60;;;;;;5046076;28;20019;-70
2021/06/21 13:19:52;;;;;;;;;;;31.10;46.60;;;;;;5045450;28;20435;-69
2021/06/21 13:22:34;;;;;;;;;;;31.40;46.20;;;;;;5045271;28;20011;-68
2021/06/21 13:25:19;;;;;;;;;;;31.40;45.10;;;;;;5043405;28;20451;-70
2021/06/21 13:27:55;;;;;;;;;;;31.20;46.30;;;;;;5045978;28;19952;-70
2021/06/21 13:30:27;;;;;;;;;;;30.00;47.60;;;;;;5045670;28;19977;-69
2021/06/21 13:32:55;;;;;;;;;;;30.30;48.40;;;;;;5044579;28;19937;-70
2021/06/21 13:35:22;;;;;;;;;;;29.10;50.20;;;;;;5046404;28;20023;-69
2021/06/21 13:37:51;;;;;;;;;;;29.50;49.80;;;;;;5045357;28;19952;-68
2021/06/21 13:40:21;;;;;;;;;;;29.30;50.40;;;;;;5046223;28;20524;-69
2021/06/21 13:42:50;;;;;;;;;;;29.30;50.50;;;;;;5047920;28;19940;-69
2021/06/21 13:45:30;;;;;;;;;;;28.70;52.40;;;;;;5046966;28;19939;-68
2021/06/21 13:48:05;;;;;;;;;;;28.20;52.50;;;;;;5046913;28;19937;-67
2021/06/21 13:50:36;;;;;;;;;;;28.50;53.50;;;;;;5047994;28;19925;-68
2021/06/21 13:53:04;;;;;;;;;;;29.70;51.80;;;;;;5045173;28;19972;-69
2021/06/21 13:55:38;;;;;;;;;;;29.60;51.10;;;;;;5045430;28;19929;-68
2021/06/21 13:58:04;;;;;;;;;;;29.10;51.50;;;;;;5047744;28;20027;-69
2021/06/21 14:00:33;;;;;;;;;;;29.20;51.50;;;;;;5044021;28;19971;-68
2021/06/21 14:03:01;;;;;;;;;;;28.80;51.80;;;;;;5046015;28;20348;-69
2021/06/21 14:05:28;;;;;;;;;;;28.40;52.80;;;;;;5044535;28;19972;-69
2021/06/21 14:07:55;;;;;;;;;;;28.50;52.30;;;;;;5045868;28;19975;-68
2021/06/21 14:10:23;;;;;;;;;;;28.60;52.70;;;;;;5045837;28;19982;-68
2021/06/21 14:12:51;;;;;;;;;;;28.30;52.90;;;;;;5044315;28;19929;-69
2021/06/21 14:15:18;;;;;;;;;;;28.00;53.50;;;;;;5058402;28;20265;-69
2021/06/21 14:17:45;;;;;;;;;;;28.20;54.70;;;;;;5046300;28;19936;-75
2021/06/21 14:20:12;;;;;;;;;;;28.30;54.10;;;;;;5044892;28;20514;-75
2021/06/21 14:22:41;;;;;;;;;;;28.40;53.30;;;;;;5044779;28;20035;-76
2021/06/21 14:25:08;;;;;;;;;;;28.40;53.80;;;;;;5044445;28;19936;-76
2021/06/21 14:27:35;;;;;;;;;;;28.60;52.70;;;;;;5045598;28;20303;-76